sensor_id;sensor_type;location;lat;lon;timestamp;pressure;altitude;pressure_sealevel;temperature;humidity
70103;BME280;57470;50.034;15.256;2023-05-11T00:00:45;99214.50;;;14.04;73.94
70103;BME280;57470;50.034;15.256;2023-05-11T00:03:11;99229.16;;;14.09;73.97
70103;BME280;57470;50.034;15.256;2023-05-11T00:05:37;99220.03;;;14.12;73.88
70103;BME280;57470;50.034;15.256;2023-05-11T00:08:02;99224.63;;;14.31;73.58
70103;BME280;57470;50.034;15.256;2023-05-11T00:10:28;99218.81;;;14.25;74.04
70103;BME280;57470;50.034;15.256;2023-05-11T00:12:54;99228.44;;;14.38;73.31
70103;BME280;57470;50.034;15.256;2023-05-11T00:15:19;99226.03;;;14.35;73.37
70103;BME280;57470;50.034;15.256;2023-05-11T00:17:45;99222.81;;;14.10;74.18
70103;BME280;57470;50.034;15.256;2023-05-11T00:20:10;99220.41;;;14.07;74.20
70103;BME280;57470;50.034;15.256;2023-05-11T00:22:35;99226.63;;;14.38;73.16
70103;BME280;57470;50.034;15.256;2023-05-11T00:25:01;99219.22;;;14.21;73.38
70103;BME280;57470;50.034;15.256;2023-05-11T00:27:27;99218.50;;;14.19;73.74
70103;BME280;57470;50.034;15.256;2023-05-11T00:29:52;99219.06;;;13.92;74.45
70103;BME280;57470;50.034;15.256;2023-05-11T00:32:17;99219.31;;;14.10;74.39
70103;BME280;57470;50.034;15.256;2023-05-11T00:34:43;99230.59;;;14.13;74.18
70103;BME280;57470;50.034;15.256;2023-05-11T00:37:08;99228.56;;;14.06;73.91
70103;BME280;57470;50.034;15.256;2023-05-11T00:39:33;99223.69;;;14.11;73.77
70103;BME280;57470;50.034;15.256;2023-05-11T00:42:05;99221.47;;;14.25;73.09
70103;BME280;57470;50.034;15.256;2023-05-11T00:44:30;99226.13;;;13.93;74.89
70103;BME280;57470;50.034;15.256;2023-05-11T00:46:56;99225.41;;;13.91;74.53
70103;BME280;57470;50.034;15.256;2023-05-11T00:49:22;99224.91;;;14.07;74.21
70103;BME280;57470;50.034;15.256;2023-05-11T00:51:48;99227.81;;;13.94;74.66
70103;BME280;57470;50.034;15.256;2023-05-11T00:54:14;99229.97;;;13.79;74.94
70103;BME280;57470;50.034;15.256;2023-05-11T00:56:40;99225.47;;;13.80;75.27
70103;BME280;57470;50.034;15.256;2023-05-11T00:59:07;99221.94;;;14.00;74.27
70103;BME280;57470;50.034;15.256;2023-05-11T01:01:33;99225.47;;;13.80;74.39
70103;BME280;57470;50.034;15.256;2023-05-11T01:04:03;99226.97;;;13.73;74.90
70103;BME280;57470;50.034;15.256;2023-05-11T01:06:54;99219.13;;;13.81;74.79
70103;BME280;57470;50.034;15.256;2023-05-11T01:09:45;99226.00;;;13.95;74.11
70103;BME280;57470;50.034;15.256;2023-05-11T01:15:12;99226.00;;;13.95;73.91
70103;BME280;57470;50.034;15.256;2023-05-11T01:17:47;99225.56;;;13.69;74.96
70103;BME280;57470;50.034;15.256;2023-05-11T01:20:19;99228.19;;;13.89;73.75
70103;BME280;57470;50.034;15.256;2023-05-11T01:30:50;99226.63;;;13.87;74.54
70103;BME280;57470;50.034;15.256;2023-05-11T01:33:25;99236.34;;;13.88;74.40
70103;BME280;57470;50.034;15.256;2023-05-11T01:35:55;99227.03;;;14.03;74.00
70103;BME280;57470;50.034;15.256;2023-05-11T01:38:26;99234.75;;;13.76;74.62
70103;BME280;57470;50.034;15.256;2023-05-11T01:40:56;99231.53;;;13.82;75.27
70103;BME280;57470;50.034;15.256;2023-05-11T01:43:25;99231.94;;;14.08;74.16
70103;BME280;57470;50.034;15.256;2023-05-11T01:45:56;99230.38;;;14.05;74.37
70103;BME280;57470;50.034;15.256;2023-05-11T01:48:24;99238.63;;;13.93;74.37
70103;BME280;57470;50.034;15.256;2023-05-11T01:50:53;99228.97;;;13.80;75.30
70103;BME280;57470;50.034;15.256;2023-05-11T01:53:21;99239.53;;;14.03;74.51
70103;BME280;57470;50.034;15.256;2023-05-11T01:55:48;99237.44;;;14.06;75.06
70103;BME280;57470;50.034;15.256;2023-05-11T01:58:15;99240.78;;;13.78;75.85
70103;BME280;57470;50.034;15.256;2023-05-11T02:00:42;99238.81;;;13.80;75.25
70103;BME280;57470;50.034;15.256;2023-05-11T02:03:09;99233.69;;;13.67;75.35
70103;BME280;57470;50.034;15.256;2023-05-11T02:05:35;99234.59;;;13.57;76.13
70103;BME280;57470;50.034;15.256;2023-05-11T02:08:04;99245.75;;;14.03;74.35
70103;BME280;57470;50.034;15.256;2023-05-11T02:10:31;99243.72;;;13.75;74.89
70103;BME280;57470;50.034;15.256;2023-05-11T02:12:59;99242.94;;;13.84;75.63
70103;BME280;57470;50.034;15.256;2023-05-11T02:15:31;99240.94;;;13.76;75.31
70103;BME280;57470;50.034;15.256;2023-05-11T02:18:00;99245.63;;;13.84;75.04
70103;BME280;57470;50.034;15.256;2023-05-11T02:20:27;99253.75;;;13.82;75.44
70103;BME280;57470;50.034;15.256;2023-05-11T02:22:55;99245.44;;;13.76;75.24
70103;BME280;57470;50.034;15.256;2023-05-11T02:25:23;99240.78;;;13.57;76.15
70103;BME280;57470;50.034;15.256;2023-05-11T02:27:51;99250.75;;;13.55;76.05
70103;BME280;57470;50.034;15.256;2023-05-11T02:30:18;99246.63;;;13.51;75.95
70103;BME280;57470;50.034;15.256;2023-05-11T02:32:50;99240.41;;;13.41;76.35
70103;BME280;57470;50.034;15.256;2023-05-11T02:35:27;99242.78;;;13.44;76.58
70103;BME280;57470;50.034;15.256;2023-05-11T02:37:58;99245.00;;;13.39;77.14
70103;BME280;57470;50.034;15.256;2023-05-11T02:40:33;99247.03;;;13.46;77.38
70103;BME280;57470;50.034;15.256;2023-05-11T02:43:11;99242.72;;;13.34;77.35
70103;BME280;57470;50.034;15.256;2023-05-11T02:45:42;99246.63;;;13.30;77.17
70103;BME280;57470;50.034;15.256;2023-05-11T02:48:20;99242.13;;;13.31;77.49
70103;BME280;57470;50.034;15.256;2023-05-11T02:50:50;99239.59;;;13.29;77.20
70103;BME280;57470;50.034;15.256;2023-05-11T02:53:19;99241.78;;;13.24;77.07
70103;BME280;57470;50.034;15.256;2023-05-11T02:55:49;99243.91;;;13.41;77.25
70103;BME280;57470;50.034;15.256;2023-05-11T02:58:18;99235.19;;;13.39;76.73
70103;BME280;57470;50.034;15.256;2023-05-11T03:00:45;99243.47;;;13.25;77.28
70103;BME280;57470;50.034;15.256;2023-05-11T03:03:13;99249.09;;;13.22;77.53
70103;BME280;57470;50.034;15.256;2023-05-11T03:05:40;99244.59;;;13.23;77.38
70103;BME280;57470;50.034;15.256;2023-05-11T03:08:07;99253.16;;;13.37;77.18
70103;BME280;57470;50.034;15.256;2023-05-11T03:10:34;99250.72;;;13.34;76.24
70103;BME280;57470;50.034;15.256;2023-05-11T03:12:59;99246.50;;;13.32;76.76
70103;BME280;57470;50.034;15.256;2023-05-11T03:15:25;99253.03;;;13.39;76.53
70103;BME280;57470;50.034;15.256;2023-05-11T03:17:52;99257.28;;;13.41;76.32
70103;BME280;57470;50.034;15.256;2023-05-11T03:20:19;99258.19;;;13.20;76.83
70103;BME280;57470;50.034;15.256;2023-05-11T03:22:47;99245.69;;;13.20;76.67
70103;BME280;57470;50.034;15.256;2023-05-11T03:25:14;99243.25;;;13.17;77.07
70103;BME280;57470;50.034;15.256;2023-05-11T03:27:41;99246.63;;;13.30;76.07
70103;BME280;57470;50.034;15.256;2023-05-11T03:30:08;99245.44;;;13.23;76.75
70103;BME280;57470;50.034;15.256;2023-05-11T03:32:35;99244.47;;;13.13;76.93
70103;BME280;57470;50.034;15.256;2023-05-11T03:35:01;99247.63;;;13.18;76.70
70103;BME280;57470;50.034;15.256;2023-05-11T03:37:29;99251.97;;;13.30;76.88
70103;BME280;57470;50.034;15.256;2023-05-11T03:39:57;99250.09;;;13.42;76.20
70103;BME280;57470;50.034;15.256;2023-05-11T03:42:24;99254.38;;;13.33;76.75
70103;BME280;57470;50.034;15.256;2023-05-11T03:44:51;99254.59;;;13.41;75.86
70103;BME280;57470;50.034;15.256;2023-05-11T03:47:20;99259.97;;;13.30;76.94
70103;BME280;57470;50.034;15.256;2023-05-11T03:49:47;99250.47;;;13.37;76.25
70103;BME280;57470;50.034;15.256;2023-05-11T03:52:13;99253.47;;;13.23;76.41
70103;BME280;57470;50.034;15.256;2023-05-11T03:54:40;99252.69;;;13.32;76.37
70103;BME280;57470;50.034;15.256;2023-05-11T03:57:08;99251.03;;;13.20;76.80
70103;BME280;57470;50.034;15.256;2023-05-11T03:59:33;99251.88;;;13.21;76.07
70103;BME280;57470;50.034;15.256;2023-05-11T04:01:58;99251.63;;;13.24;76.31
70103;BME280;57470;50.034;15.256;2023-05-11T04:04:29;99259.41;;;13.15;77.00
70103;BME280;57470;50.034;15.256;2023-05-11T04:06:55;99262.16;;;13.25;75.79
70103;BME280;57470;50.034;15.256;2023-05-11T04:09:21;99258.66;;;13.25;75.94
70103;BME280;57470;50.034;15.256;2023-05-11T04:11:46;99255.84;;;13.26;76.11
70103;BME280;57470;50.034;15.256;2023-05-11T04:14:11;99258.81;;;13.23;76.07
70103;BME280;57470;50.034;15.256;2023-05-11T04:16:37;99261.81;;;13.30;76.07
70103;BME280;57470;50.034;15.256;2023-05-11T04:19:02;99258.66;;;13.25;75.60
70103;BME280;57470;50.034;15.256;2023-05-11T04:21:28;99254.59;;;13.41;75.95
70103;BME280;57470;50.034;15.256;2023-05-11T04:23:53;99255.28;;;13.43;75.50
70103;BME280;57470;50.034;15.256;2023-05-11T04:26:18;99261.13;;;13.48;75.58
70103;BME280;57470;50.034;15.256;2023-05-11T04:28:44;99254.59;;;13.41;75.37
70103;BME280;57470;50.034;15.256;2023-05-11T04:31:09;99257.00;;;13.44;75.77
70103;BME280;57470;50.034;15.256;2023-05-11T04:33:34;99267.34;;;13.38;74.67
70103;BME280;57470;50.034;15.256;2023-05-11T04:36:00;99269.78;;;13.62;74.54
70103;BME280;57470;50.034;15.256;2023-05-11T04:38:25;99270.56;;;13.52;73.80
70103;BME280;57470;50.034;15.256;2023-05-11T04:40:51;99268.75;;;13.53;74.95
70103;BME280;57470;50.034;15.256;2023-05-11T04:43:16;99272.75;;;13.59;73.59
70103;BME280;57470;50.034;15.256;2023-05-11T04:45:49;99273.25;;;13.73;74.08
70103;BME280;57470;50.034;15.256;2023-05-11T04:48:14;99265.63;;;13.89;72.75
70103;BME280;57470;50.034;15.256;2023-05-11T04:50:41;99267.97;;;13.83;73.44
70103;BME280;57470;50.034;15.256;2023-05-11T04:53:07;99274.97;;;13.95;73.11
70103;BME280;57470;50.034;15.256;2023-05-11T04:55:32;99276.84;;;13.83;73.14
70103;BME280;57470;50.034;15.256;2023-05-11T04:57:58;99273.69;;;13.78;72.96
70103;BME280;57470;50.034;15.256;2023-05-11T05:00:23;99272.34;;;13.84;73.41
70103;BME280;57470;50.034;15.256;2023-05-11T05:02:48;99279.47;;;13.95;73.38
70103;BME280;57470;50.034;15.256;2023-05-11T05:05:17;99278.56;;;13.84;73.05
70103;BME280;57470;50.034;15.256;2023-05-11T05:07:43;99283.69;;;13.97;73.46
70103;BME280;57470;50.034;15.256;2023-05-11T05:10:08;99280.31;;;13.95;72.57
70103;BME280;57470;50.034;15.256;2023-05-11T05:12:36;99277.16;;;13.90;73.36
70103;BME280;57470;50.034;15.256;2023-05-11T05:15:01;99276.31;;;13.89;74.44
70103;BME280;57470;50.034;15.256;2023-05-11T05:17:27;99280.03;;;14.19;73.30
70103;BME280;57470;50.034;15.256;2023-05-11T05:19:52;99284.44;;;14.30;73.20
70103;BME280;57470;50.034;15.256;2023-05-11T05:22:18;99289.03;;;14.39;72.89
70103;BME280;57470;50.034;15.256;2023-05-11T05:24:43;99284.91;;;14.14;73.36
70103;BME280;57470;50.034;15.256;2023-05-11T05:27:09;99286.84;;;14.53;72.69
70103;BME280;57470;50.034;15.256;2023-05-11T05:29:34;99298.34;;;14.44;73.06
70103;BME280;57470;50.034;15.256;2023-05-11T05:31:59;99289.34;;;14.45;73.17
70103;BME280;57470;50.034;15.256;2023-05-11T05:34:25;99295.00;;;14.52;73.25
70103;BME280;57470;50.034;15.256;2023-05-11T05:36:50;99301.16;;;14.43;72.47
70103;BME280;57470;50.034;15.256;2023-05-11T05:39:15;99298.00;;;14.68;72.50
70103;BME280;57470;50.034;15.256;2023-05-11T05:41:41;99298.47;;;14.43;71.31
70103;BME280;57470;50.034;15.256;2023-05-11T05:44:07;99304.63;;;14.64;72.75
70103;BME280;57470;50.034;15.256;2023-05-11T05:46:32;99303.75;;;15.03;71.81
70103;BME280;57470;50.034;15.256;2023-05-11T05:48:57;99302.03;;;14.83;72.56
70103;BME280;57470;50.034;15.256;2023-05-11T05:51:23;99304.63;;;14.64;72.04
70103;BME280;57470;50.034;15.256;2023-05-11T05:53:48;99307.91;;;14.77;72.58
70103;BME280;57470;50.034;15.256;2023-05-11T05:56:13;99312.13;;;14.70;73.13
70103;BME280;57470;50.034;15.256;2023-05-11T05:58:40;99313.81;;;14.71;72.09
70103;BME280;57470;50.034;15.256;2023-05-11T06:01:05;99323.72;;;14.80;71.45
70103;BME280;57470;50.034;15.256;2023-05-11T06:03:31;99314.38;;;14.65;71.53
70103;BME280;57470;50.034;15.256;2023-05-11T06:05:56;99316.63;;;14.70;71.33
70103;BME280;57470;50.034;15.256;2023-05-11T06:08:22;99306.13;;;14.87;72.08
70103;BME280;57470;50.034;15.256;2023-05-11T06:10:47;99306.25;;;14.76;71.30
70103;BME280;57470;50.034;15.256;2023-05-11T06:13:13;99316.28;;;14.84;71.77
70103;BME280;57470;50.034;15.256;2023-05-11T06:15:38;99321.94;;;15.00;71.00
70103;BME280;57470;50.034;15.256;2023-05-11T06:18:04;99317.72;;;14.97;70.98
70103;BME280;57470;50.034;15.256;2023-05-11T06:20:30;99323.34;;;15.04;70.68
70103;BME280;57470;50.034;15.256;2023-05-11T06:22:56;99322.13;;;15.18;71.04
70103;BME280;57470;50.034;15.256;2023-05-11T06:25:21;99326.81;;;15.35;70.82
70103;BME280;57470;50.034;15.256;2023-05-11T06:27:46;99324.00;;;15.36;69.74
70103;BME280;57470;50.034;15.256;2023-05-11T06:30:12;99327.25;;;15.50;70.10
70103;BME280;57470;50.034;15.256;2023-05-11T06:32:37;99321.59;;;15.43;70.40
70103;BME280;57470;50.034;15.256;2023-05-11T06:35:03;99320.91;;;15.41;69.12
70103;BME280;57470;50.034;15.256;2023-05-11T06:37:29;99327.16;;;15.70;69.51
70103;BME280;57470;50.034;15.256;2023-05-11T06:39:54;99327.41;;;16.06;69.90
70103;BME280;57470;50.034;15.256;2023-05-11T06:42:20;99321.22;;;15.96;70.72
70103;BME280;57470;50.034;15.256;2023-05-11T06:44:47;99330.97;;;15.97;69.58
70103;BME280;57470;50.034;15.256;2023-05-11T06:47:13;99332.41;;;15.82;68.89
70103;BME280;57470;50.034;15.256;2023-05-11T06:49:40;99324.75;;;15.96;68.93
70103;BME280;57470;50.034;15.256;2023-05-11T06:52:05;99315.09;;;16.32;68.56
70103;BME280;57470;50.034;15.256;2023-05-11T06:54:31;99320.53;;;16.50;67.87
70103;BME280;57470;50.034;15.256;2023-05-11T06:56:56;99322.75;;;16.18;68.64
70103;BME280;57470;50.034;15.256;2023-05-11T06:59:21;99318.25;;;15.99;70.23
70103;BME280;57470;50.034;15.256;2023-05-11T07:01:47;99312.78;;;16.37;69.62
70103;BME280;57470;50.034;15.256;2023-05-11T07:04:12;99320.34;;;16.05;68.52
70103;BME280;57470;50.034;15.256;2023-05-11T07:06:37;99318.88;;;16.30;68.93
70103;BME280;57470;50.034;15.256;2023-05-11T07:09:03;99318.97;;;16.47;67.54
70103;BME280;57470;50.034;15.256;2023-05-11T07:11:31;99316.97;;;16.69;68.46
70103;BME280;57470;50.034;15.256;2023-05-11T07:13:57;99317.78;;;16.79;68.48
70103;BME280;57470;50.034;15.256;2023-05-11T07:16:22;99312.31;;;16.71;67.77
70103;BME280;57470;50.034;15.256;2023-05-11T07:18:48;99322.66;;;17.38;66.02
70103;BME280;57470;50.034;15.256;2023-05-11T07:21:13;99311.41;;;17.07;68.27
70103;BME280;57470;50.034;15.256;2023-05-11T07:23:39;99316.66;;;17.09;66.23
70103;BME280;57470;50.034;15.256;2023-05-11T07:26:05;99319.53;;;17.25;66.05
70103;BME280;57470;50.034;15.256;2023-05-11T07:28:37;99315.19;;;17.14;66.84
70103;BME280;57470;50.034;15.256;2023-05-11T07:31:03;99322.19;;;17.70;66.09
70103;BME280;57470;50.034;15.256;2023-05-11T07:33:28;99314.31;;;17.41;64.60
70103;BME280;57470;50.034;15.256;2023-05-11T07:35:54;99321.25;;;17.61;64.67
70103;BME280;57470;50.034;15.256;2023-05-11T07:38:19;99324.84;;;17.52;65.10
70103;BME280;57470;50.034;15.256;2023-05-11T07:40:45;99310.63;;;17.60;66.11
70103;BME280;57470;50.034;15.256;2023-05-11T07:43:11;99322.53;;;18.11;65.51
70103;BME280;57470;50.034;15.256;2023-05-11T07:45:36;99319.66;;;18.30;63.48
70103;BME280;57470;50.034;15.256;2023-05-11T07:48:02;99317.97;;;17.85;64.10
70103;BME280;57470;50.034;15.256;2023-05-11T07:50:28;99307.38;;;18.10;64.28
70103;BME280;57470;50.034;15.256;2023-05-11T07:52:53;99313.41;;;18.04;64.91
70103;BME280;57470;50.034;15.256;2023-05-11T07:55:19;99315.41;;;17.84;63.56
70103;BME280;57470;50.034;15.256;2023-05-11T07:57:49;99320.00;;;18.35;64.41
70103;BME280;57470;50.034;15.256;2023-05-11T08:00:15;99325.78;;;18.40;62.01
70103;BME280;57470;50.034;15.256;2023-05-11T08:02:40;99315.03;;;18.66;63.22
70103;BME280;57470;50.034;15.256;2023-05-11T08:05:06;99316.63;;;18.85;62.56
70103;BME280;57470;50.034;15.256;2023-05-11T08:07:32;99316.63;;;18.85;62.71
70103;BME280;57470;50.034;15.256;2023-05-11T08:09:57;99315.31;;;18.37;63.14
70103;BME280;57470;50.034;15.256;2023-05-11T08:12:23;99324.50;;;18.52;62.62
70103;BME280;57470;50.034;15.256;2023-05-11T08:14:48;99318.53;;;18.58;63.41
70103;BME280;57470;50.034;15.256;2023-05-11T08:17:14;99316.41;;;18.52;62.89
70103;BME280;57470;50.034;15.256;2023-05-11T08:19:39;99315.75;;;18.24;62.20
70103;BME280;57470;50.034;15.256;2023-05-11T08:22:05;99313.94;;;18.85;63.42
70103;BME280;57470;50.034;15.256;2023-05-11T08:24:30;99317.13;;;19.22;61.72
70103;BME280;57470;50.034;15.256;2023-05-11T08:26:56;99314.13;;;18.91;61.78
70103;BME280;57470;50.034;15.256;2023-05-11T08:29:21;99319.44;;;19.17;61.13
70103;BME280;57470;50.034;15.256;2023-05-11T08:31:48;99318.00;;;19.39;60.82
70103;BME280;57470;50.034;15.256;2023-05-11T08:34:14;99301.91;;;20.04;61.10
70103;BME280;57470;50.034;15.256;2023-05-11T08:36:39;99312.19;;;20.08;59.75
70103;BME280;57470;50.034;15.256;2023-05-11T08:39:04;99308.13;;;20.04;59.77
70103;BME280;57470;50.034;15.256;2023-05-11T08:41:30;99291.94;;;20.20;60.22
70103;BME280;57470;50.034;15.256;2023-05-11T08:43:56;99304.09;;;19.84;60.35
70103;BME280;57470;50.034;15.256;2023-05-11T08:46:23;99307.66;;;19.84;58.93
70103;BME280;57470;50.034;15.256;2023-05-11T08:48:51;99300.34;;;19.61;58.28
70103;BME280;57470;50.034;15.256;2023-05-11T08:51:17;99306.28;;;19.64;58.65
70103;BME280;57470;50.034;15.256;2023-05-11T08:53:43;99292.63;;;19.58;59.45
70103;BME280;57470;50.034;15.256;2023-05-11T08:56:10;99301.13;;;19.29;59.76
70103;BME280;57470;50.034;15.256;2023-05-11T08:58:37;99295.53;;;19.22;59.98
70103;BME280;57470;50.034;15.256;2023-05-11T09:01:03;99297.59;;;19.36;58.58
70103;BME280;57470;50.034;15.256;2023-05-11T09:03:30;99304.09;;;19.92;58.47
70103;BME280;57470;50.034;15.256;2023-05-11T09:05:56;99306.09;;;19.58;59.02
70103;BME280;57470;50.034;15.256;2023-05-11T09:08:23;99287.34;;;18.98;58.80
70103;BME280;57470;50.034;15.256;2023-05-11T09:10:50;99298.69;;;19.09;58.41
70103;BME280;57470;50.034;15.256;2023-05-11T09:13:16;99301.34;;;19.52;60.03
70103;BME280;57470;50.034;15.256;2023-05-11T09:15:41;99287.22;;;19.50;56.93
70103;BME280;57470;50.034;15.256;2023-05-11T09:18:07;99292.31;;;19.10;57.30
70103;BME280;57470;50.034;15.256;2023-05-11T09:20:33;99297.50;;;19.04;58.47
70103;BME280;57470;50.034;15.256;2023-05-11T09:22:59;99288.81;;;19.26;58.48
70103;BME280;57470;50.034;15.256;2023-05-11T09:25:26;99292.13;;;19.04;58.45
70103;BME280;57470;50.034;15.256;2023-05-11T09:27:53;99297.38;;;19.14;59.65
70103;BME280;57470;50.034;15.256;2023-05-11T09:30:20;99298.94;;;18.82;56.61
70103;BME280;57470;50.034;15.256;2023-05-11T09:32:47;99296.66;;;19.03;59.13
70103;BME280;57470;50.034;15.256;2023-05-11T09:35:24;99287.88;;;19.01;57.72
70103;BME280;57470;50.034;15.256;2023-05-11T09:38:16;99281.47;;;19.61;57.02
70103;BME280;57470;50.034;15.256;2023-05-11T09:40:51;99294.47;;;19.57;55.27
70103;BME280;57470;50.034;15.256;2023-05-11T09:43:19;99288.06;;;19.08;55.28
70103;BME280;57470;50.034;15.256;2023-05-11T09:45:47;99297.53;;;19.12;54.96
70103;BME280;57470;50.034;15.256;2023-05-11T09:50:48;99283.06;;;18.79;55.04
70103;BME280;57470;50.034;15.256;2023-05-11T09:53:13;99284.03;;;19.04;55.18
70103;BME280;57470;50.034;15.256;2023-05-11T09:55:53;99290.88;;;19.40;55.39
70103;BME280;57470;50.034;15.256;2023-05-11T09:58:19;99286.09;;;19.18;56.06
70103;BME280;57470;50.034;15.256;2023-05-11T10:00:49;99285.81;;;19.37;56.44
70103;BME280;57470;50.034;15.256;2023-05-11T10:03:18;99286.94;;;19.27;54.13
70103;BME280;57470;50.034;15.256;2023-05-11T10:06:00;99286.97;;;19.35;54.04
70103;BME280;57470;50.034;15.256;2023-05-11T10:08:30;99282.09;;;19.30;54.62
70103;BME280;57470;50.034;15.256;2023-05-11T10:11:00;99279.38;;;19.22;56.10
70103;BME280;57470;50.034;15.256;2023-05-11T10:13:26;99274.50;;;19.42;53.88
70103;BME280;57470;50.034;15.256;2023-05-11T10:15:53;99279.97;;;19.74;53.48
70103;BME280;57470;50.034;15.256;2023-05-11T10:18:19;99275.28;;;19.10;51.99
70103;BME280;57470;50.034;15.256;2023-05-11T10:20:45;99276.53;;;19.32;51.19
70103;BME280;57470;50.034;15.256;2023-05-11T10:23:11;99272.31;;;19.37;51.22
70103;BME280;57470;50.034;15.256;2023-05-11T10:25:38;99268.13;;;19.51;51.97
70103;BME280;57470;50.034;15.256;2023-05-11T10:28:04;99270.09;;;19.25;53.16
70103;BME280;57470;50.034;15.256;2023-05-11T10:30:30;99268.97;;;19.52;53.64
70103;BME280;57470;50.034;15.256;2023-05-11T10:32:59;99267.22;;;19.18;53.79
70103;BME280;57470;50.034;15.256;2023-05-11T10:35:25;99268.91;;;19.19;51.85
70103;BME280;57470;50.034;15.256;2023-05-11T10:37:51;99272.97;;;19.23;51.61
70103;BME280;57470;50.034;15.256;2023-05-11T10:40:16;99273.72;;;18.99;52.00
70103;BME280;57470;50.034;15.256;2023-05-11T10:45:41;99273.31;;;19.28;51.55
70103;BME280;57470;50.034;15.256;2023-05-11T10:48:36;99271.09;;;19.24;51.65
70103;BME280;57470;50.034;15.256;2023-05-11T10:54:24;99257.81;;;19.22;51.62
70103;BME280;57470;50.034;15.256;2023-05-11T11:02:53;99252.13;;;20.06;52.28
70103;BME280;57470;50.034;15.256;2023-05-11T11:05:44;99251.63;;;20.03;49.94
70103;BME280;57470;50.034;15.256;2023-05-11T11:08:10;99251.13;;;19.83;50.35
70103;BME280;57470;50.034;15.256;2023-05-11T11:13:02;99239.56;;;20.46;50.05
70103;BME280;57470;50.034;15.256;2023-05-11T11:18:29;99247.84;;;20.91;47.69
70103;BME280;57470;50.034;15.256;2023-05-11T11:20:56;99247.03;;;20.36;48.13
70103;BME280;57470;50.034;15.256;2023-05-11T11:23:50;99253.50;;;19.94;47.83
70103;BME280;57470;50.034;15.256;2023-05-11T11:26:18;99255.34;;;19.69;47.87
70103;BME280;57470;50.034;15.256;2023-05-11T11:29:09;99255.81;;;19.40;48.64
70103;BME280;57470;50.034;15.256;2023-05-11T11:31:36;99253.25;;;19.31;49.01
70103;BME280;57470;50.034;15.256;2023-05-11T11:34:37;99254.97;;;19.40;49.93
70103;BME280;57470;50.034;15.256;2023-05-11T11:37:03;99260.25;;;19.50;49.28
70103;BME280;57470;50.034;15.256;2023-05-11T11:39:44;99252.47;;;19.79;48.13
70103;BME280;57470;50.034;15.256;2023-05-11T11:45:25;99263.91;;;20.38;51.09
70103;BME280;57470;50.034;15.256;2023-05-11T11:48:14;99253.31;;;19.71;49.95
70103;BME280;57470;50.034;15.256;2023-05-11T11:50:42;99256.50;;;20.07;49.52
70103;BME280;57470;50.034;15.256;2023-05-11T11:53:56;99254.59;;;20.87;48.47
70103;BME280;57470;50.034;15.256;2023-05-11T11:55:57;99249.66;;;20.99;45.76
70103;BME280;57470;50.034;15.256;2023-05-11T12:01:08;99240.72;;;21.98;46.53
70103;BME280;57470;50.034;15.256;2023-05-11T12:03:35;99247.56;;;20.78;47.72
70103;BME280;57470;50.034;15.256;2023-05-11T12:06:00;99247.34;;;20.49;47.73
70103;BME280;57470;50.034;15.256;2023-05-11T12:08:28;99245.69;;;20.07;48.08
70103;BME280;57470;50.034;15.256;2023-05-11T12:10:56;99259.34;;;20.38;49.63
70103;BME280;57470;50.034;15.256;2023-05-11T12:13:23;99253.78;;;20.15;49.20
70103;BME280;57470;50.034;15.256;2023-05-11T12:15:49;99258.00;;;20.34;50.64
70103;BME280;57470;50.034;15.256;2023-05-11T12:18:21;99254.78;;;20.31;51.74
70103;BME280;57470;50.034;15.256;2023-05-11T12:20:47;99261.25;;;19.89;50.66
70103;BME280;57470;50.034;15.256;2023-05-11T12:23:12;99262.09;;;19.65;51.28
70103;BME280;57470;50.034;15.256;2023-05-11T12:25:40;99264.47;;;19.84;51.36
70103;BME280;57470;50.034;15.256;2023-05-11T12:28:06;99260.91;;;19.92;51.35
70103;BME280;57470;50.034;15.256;2023-05-11T12:30:33;99256.66;;;20.14;50.11
70103;BME280;57470;50.034;15.256;2023-05-11T12:32:59;99259.22;;;19.91;51.95
70103;BME280;57470;50.034;15.256;2023-05-11T12:35:32;99261.06;;;19.91;51.50
70103;BME280;57470;50.034;15.256;2023-05-11T12:38:00;99257.69;;;19.89;50.15
70103;BME280;57470;50.034;15.256;2023-05-11T12:40:26;99257.50;;;20.06;51.08
70103;BME280;57470;50.034;15.256;2023-05-11T12:45:19;99263.38;;;20.42;51.68
70103;BME280;57470;50.034;15.256;2023-05-11T12:47:49;99257.69;;;20.84;50.54
70103;BME280;57470;50.034;15.256;2023-05-11T12:50:15;99250.25;;;20.39;50.43
70103;BME280;57470;50.034;15.256;2023-05-11T12:52:41;99247.84;;;20.44;50.76
70103;BME280;57470;50.034;15.256;2023-05-11T12:55:07;99252.59;;;20.26;51.05
70103;BME280;57470;50.034;15.256;2023-05-11T12:57:35;99246.03;;;20.04;51.65
70103;BME280;57470;50.034;15.256;2023-05-11T13:00:10;99256.50;;;20.15;54.27
70103;BME280;57470;50.034;15.256;2023-05-11T13:05:10;99250.59;;;19.96;55.31
70103;BME280;57470;50.034;15.256;2023-05-11T13:07:36;99246.06;;;20.12;54.16
70103;BME280;57470;50.034;15.256;2023-05-11T13:10:02;99246.19;;;19.38;54.09
70103;BME280;57470;50.034;15.256;2023-05-11T13:12:28;99244.19;;;19.89;55.00
70103;BME280;57470;50.034;15.256;2023-05-11T13:15:06;99248.44;;;19.83;55.55
70103;BME280;57470;50.034;15.256;2023-05-11T13:17:34;99242.38;;;19.65;54.70
70103;BME280;57470;50.034;15.256;2023-05-11T13:20:33;99246.69;;;20.14;53.88
70103;BME280;57470;50.034;15.256;2023-05-11T13:23:06;99249.09;;;20.01;54.50
70103;BME280;57470;50.034;15.256;2023-05-11T13:25:33;99248.06;;;20.10;55.25
70103;BME280;57470;50.034;15.256;2023-05-11T13:27:59;99241.81;;;20.18;55.88
70103;BME280;57470;50.034;15.256;2023-05-11T13:30:26;99239.25;;;20.41;53.83
70103;BME280;57470;50.034;15.256;2023-05-11T13:32:51;99233.41;;;19.80;53.17
70103;BME280;57470;50.034;15.256;2023-05-11T13:35:16;99236.94;;;19.89;52.39